Historyczne dane pomiarowe

Dodano dane terminowe – wersja testowa.

Dane z okresu 1951-2019

Wersja bazy: 1.34 [2019-03-16, lista zmian], aktualizacja planowana na 2019-04-15

Dane meteo z obszaru Polski uzyskane na podstawie danych udostępnionych przez Instytut Meteorologii i Gospodarki Wodnej – Państwowy Instytut Badawczy.

 

Wybierz Datę:    

       

TemperaturaWilgotnośćWiatrCiśnienieOpadyŚniegCzas trwania zjawisk
 Stacja t tx tn tng RH VA  wxwx mslp ppp RRR   cm mm wxwxwxwxwxwxwx
1994-08-14 15.4 19.6 11.9 9.5 74.8- 3.7 3.3---- 0.0------------
1994-08-13 17.0 22.4 14.8 13.4 88.0- 7.3 5.7---- 0.0------------
1994-08-12 16.1 19.4 15.3 12.6 97.3- 8.0 2.0---- 16.7------------
1994-08-11 19.1 24.0 16.9 16.1 91.5- 6.0 1.0---- 3.0------------
1994-08-10 20.5 27.9 14.3 11.3 76.5- 6.0 2.0---- 10.9------------
1994-08-09 19.1 23.3 17.7 17.1 97.0- 5.3 2.7---- 9.2------------
1994-08-08 21.5 27.1 18.2 17.1 77.8- 6.7 1.3---- 4.0------------
1994-08-07 22.9 31.5 16.9 12.6 84.0- 5.0 0.7---- 55.6------------
1994-08-06 25.5 34.5 14.8 10.7 58.0- 3.7 3.0---- 0.0------------
1994-08-05 24.6 31.7 15.3 12.6 66.5- 1.7 1.7---- 0.0------------
1994-08-04 22.7 29.1 15.3 10.5 70.3- 2.0 2.3---- 0.0------------
1994-08-03 24.1 30.1 18.5 17.5 75.5- 5.3 3.0---- 0.0------------
1994-08-02 25.9 33.7 21.6 18.7 65.3- 7.0 3.3---- 10.3------------
1994-08-01 27.5 36.1 17.5 14.6 55.0- 4.7 2.3---- 0.0------------
1994-07-31 26.5 35.7 15.8 11.0 50.5- 1.7 2.7---- 0.0------------
1994-07-30 25.9 35.5 13.6 9.5 51.5- 1.0 1.7---- 0.0------------
1994-07-29 25.6 34.5 13.9 9.5 47.5- 1.0 2.0---- 0.0------------
1994-07-28 24.6 33.7 12.1 7.6 50.3- 2.7 2.0---- 0.0------------
1994-07-27 25.3 34.3 13.7 10.0 51.8- 4.3 1.3---- 0.0------------
1994-07-26 25.1 34.1 13.7 11.3 54.3- 3.7 1.3---- 0.0------------
1994-07-25 23.1 32.5 12.1 9.5 57.0- 1.3 1.7---- 0.0------------
1994-07-24 23.6 31.1 11.6 6.5 49.5- 0.3 2.0---- 0.0------------
1994-07-23 22.5 29.5 10.6 5.2 51.3- 1.3 1.7---- 0.0------------
1994-07-22 21.9 29.7 9.6 5.2 63.3- 0.7 2.3---- 0.0------------
1994-07-21 20.4 27.5 9.1 3.8 80.5- 0.0 2.0---- 0.0------------
1994-07-20 19.8 25.0 13.3 9.7 81.8- 2.0 4.0---- 0.0------------
1994-07-19 20.5 25.0 13.7 9.7 77.0- 8.0 2.3---- 0.0------------
1994-07-18 21.0 28.1 13.6 11.1 82.3- 5.0 2.0---- 0.0------------
1994-07-17 21.0 29.1 15.8 12.4 90.3- 8.0 0.7---- 0.9------------
1994-07-16 21.5 30.3 13.2 10.3 88.8- 4.3 3.3---- 0.0------------
1994-07-15 22.9 29.1 14.4 10.5 77.3- 4.0 1.3---- 0.0------------
1994-07-14 22.6 30.7 12.2 8.6 72.8- 6.0 2.3---- 0.0------------
1994-07-13 22.4 28.0 12.7 8.8 65.8- 5.3 3.0---- 0.0------------
1994-07-12 21.4 26.5 13.9 11.5 75.0- 1.7 3.3---- 0.0------------
1994-07-11 19.2 26.4 11.1 8.4 76.8- 6.0 2.0---- 0.0------------
1994-07-10 16.7 23.0 12.5 11.1 85.5- 4.3 3.7---- 0.0------------
1994-07-09 14.7 18.8 12.4 11.5 91.0- 7.7 3.7---- 7.4------------
1994-07-08 16.4 20.4 12.2 10.7 75.0- 5.3 4.3---- 3.7------------
1994-07-07 18.8 26.4 10.1 7.1 75.5- 7.7 1.7---- 5.3------------
1994-07-06 19.8 26.6 9.1 7.0 63.8- 4.0 0.7---- 0.0------------
1994-07-05 21.2 27.1 13.2 9.0 69.0- 6.7 0.0---- 0.0------------
1994-07-04 22.0 31.1 9.6 5.0 55.3- 1.3 1.3---- 0.0------------
1994-07-03 22.1 28.2 8.6 4.6 50.3- 0.3 1.3---- 0.0------------
1994-07-02 19.4 26.4 8.4 4.0 59.8- 0.0 2.7---- 0.0------------
1994-07-01 18.2 24.4 10.2 5.1 66.0- 1.3 2.7---- 0.0------------
1994-06-30 20.9 28.5 16.9 15.0 82.5- 6.3 3.7---- 0.0------------
1994-06-29 25.6 31.9 16.9 12.8 68.0- 2.3 1.7---- 0.0------------
1994-06-28 25.5 31.1 17.3 14.0 66.5- 5.7 2.0---- 0.0------------
1994-06-27 25.4 32.6 15.3 11.5 70.3- 4.0 0.7---- 0.0------------
1994-06-26 21.8 29.4 11.6 4.6 55.8- 3.7 2.7---- 0.0------------
1994-06-25 16.2 25.2 3.1 -0.6 53.0- 0.0 3.0---- 0.0------------
1994-06-24 14.1 20.4 5.8 -0.6 56.3- 0.0 3.3---- 0.0------------
1994-06-23 17.4 22.4 15.3 11.6 57.3- 1.0 5.7---- 0.0------------
1994-06-22 18.1 26.1 8.6 4.0 68.5- 6.7 3.0---- 0.0------------
1994-06-21 15.3 21.4 6.0 0.9 67.5- 2.0 1.7---- 0.0------------
1994-06-20 15.1 20.0 9.1 5.0 79.3- 6.0 3.3---- 0.0------------
1994-06-19 17.7 25.0 11.4 9.3 70.8- 5.0 3.0---- 0.0------------
1994-06-18 11.8 19.4 3.2 -1.1 81.8- 6.3 3.0---- 7.8------------
1994-06-17 10.9 14.9 7.8 5.7 72.8- 6.0 4.7---- 0.0------------
1994-06-16 11.1 16.4 6.0 0.0 79.0- 7.7 3.0---- 5.5------------
522.2 ms

 

Źródłem pochodzenia danych jest Instytut Meteorologii i Gospodarki Wodnej – Państwowy Instytut Badawczy. Dane Instytutu Meteorologii i Gospodarki Wodnej – Państwowego Instytutu Badawczego zostały przetworzone.

Dane źródłowe można odnaleźć na stronie https://dane.imgw.pl